sensor_id;sensor_type;location;lat;lon;timestamp;P1;durP1;ratioP1;P2;durP2;ratioP2
21677;SDS011;11000;50.360;7.582;2023-06-14T00:02:19;6.20;;;4.13;;
21677;SDS011;11000;50.360;7.582;2023-06-14T00:04:40;7.13;;;4.20;;
21677;SDS011;11000;50.360;7.582;2023-06-14T00:07:01;4.77;;;4.17;;
21677;SDS011;11000;50.360;7.582;2023-06-14T00:09:22;4.37;;;3.97;;
21677;SDS011;11000;50.360;7.582;2023-06-14T00:11:43;5.13;;;3.77;;
21677;SDS011;11000;50.360;7.582;2023-06-14T00:14:04;4.60;;;4.20;;
21677;SDS011;11000;50.360;7.582;2023-06-14T00:16:25;6.20;;;4.23;;
21677;SDS011;11000;50.360;7.582;2023-06-14T00:18:46;7.13;;;4.17;;
21677;SDS011;11000;50.360;7.582;2023-06-14T00:21:06;4.27;;;3.87;;
21677;SDS011;11000;50.360;7.582;2023-06-14T00:23:27;6.17;;;4.23;;
21677;SDS011;11000;50.360;7.582;2023-06-14T00:25:47;5.17;;;4.57;;
21677;SDS011;11000;50.360;7.582;2023-06-14T00:28:07;6.03;;;4.50;;
21677;SDS011;11000;50.360;7.582;2023-06-14T00:30:28;6.73;;;4.23;;
21677;SDS011;11000;50.360;7.582;2023-06-14T00:32:50;6.87;;;4.20;;
21677;SDS011;11000;50.360;7.582;2023-06-14T00:35:11;5.87;;;4.30;;
21677;SDS011;11000;50.360;7.582;2023-06-14T00:37:32;5.03;;;4.30;;
21677;SDS011;11000;50.360;7.582;2023-06-14T00:39:52;4.20;;;3.80;;
21677;SDS011;11000;50.360;7.582;2023-06-14T00:42:22;5.60;;;4.23;;
21677;SDS011;11000;50.360;7.582;2023-06-14T00:44:46;4.50;;;4.10;;
21677;SDS011;11000;50.360;7.582;2023-06-14T00:47:06;5.87;;;4.30;;
21677;SDS011;11000;50.360;7.582;2023-06-14T00:49:27;5.93;;;4.50;;
21677;SDS011;11000;50.360;7.582;2023-06-14T00:51:49;5.40;;;4.27;;
21677;SDS011;11000;50.360;7.582;2023-06-14T00:54:11;4.97;;;4.37;;
21677;SDS011;11000;50.360;7.582;2023-06-14T00:56:31;4.53;;;4.13;;
21677;SDS011;11000;50.360;7.582;2023-06-14T00:58:52;5.13;;;4.20;;
21677;SDS011;11000;50.360;7.582;2023-06-14T01:01:13;4.73;;;4.33;;
21677;SDS011;11000;50.360;7.582;2023-06-14T01:03:34;6.00;;;4.40;;
21677;SDS011;11000;50.360;7.582;2023-06-14T01:06:04;6.43;;;4.50;;
21677;SDS011;11000;50.360;7.582;2023-06-14T01:08:38;5.20;;;4.50;;
21677;SDS011;11000;50.360;7.582;2023-06-14T01:11:12;4.60;;;4.20;;
21677;SDS011;11000;50.360;7.582;2023-06-14T01:13:40;5.30;;;4.10;;
21677;SDS011;11000;50.360;7.582;2023-06-14T01:16:05;5.83;;;4.37;;
21677;SDS011;11000;50.360;7.582;2023-06-14T01:18:27;4.70;;;4.23;;
21677;SDS011;11000;50.360;7.582;2023-06-14T01:20:49;5.77;;;4.57;;
21677;SDS011;11000;50.360;7.582;2023-06-14T01:23:10;6.47;;;4.60;;
21677;SDS011;11000;50.360;7.582;2023-06-14T01:25:35;4.70;;;4.30;;
21677;SDS011;11000;50.360;7.582;2023-06-14T01:28:00;7.33;;;4.73;;
21677;SDS011;11000;50.360;7.582;2023-06-14T01:30:24;4.83;;;4.43;;
21677;SDS011;11000;50.360;7.582;2023-06-14T01:32:45;4.60;;;3.70;;
21677;SDS011;11000;50.360;7.582;2023-06-14T01:35:07;5.67;;;4.27;;
21677;SDS011;11000;50.360;7.582;2023-06-14T01:37:27;4.20;;;3.87;;
21677;SDS011;11000;50.360;7.582;2023-06-14T01:39:49;6.67;;;4.63;;
21677;SDS011;11000;50.360;7.582;2023-06-14T01:42:10;4.73;;;4.33;;
21677;SDS011;11000;50.360;7.582;2023-06-14T01:44:32;4.73;;;4.23;;
21677;SDS011;11000;50.360;7.582;2023-06-14T01:46:53;5.00;;;4.50;;
21677;SDS011;11000;50.360;7.582;2023-06-14T01:49:14;8.13;;;4.40;;
21677;SDS011;11000;50.360;7.582;2023-06-14T01:51:35;4.17;;;3.77;;
21677;SDS011;11000;50.360;7.582;2023-06-14T01:53:55;8.13;;;4.37;;
21677;SDS011;11000;50.360;7.582;2023-06-14T01:56:17;5.23;;;4.43;;
21677;SDS011;11000;50.360;7.582;2023-06-14T01:58:37;6.63;;;4.00;;
21677;SDS011;11000;50.360;7.582;2023-06-14T02:00:59;6.60;;;4.63;;
21677;SDS011;11000;50.360;7.582;2023-06-14T02:03:20;5.47;;;4.23;;
21677;SDS011;11000;50.360;7.582;2023-06-14T02:05:41;6.97;;;4.63;;
21677;SDS011;11000;50.360;7.582;2023-06-14T02:08:01;5.97;;;4.30;;
21677;SDS011;11000;50.360;7.582;2023-06-14T02:10:22;5.20;;;4.50;;
21677;SDS011;11000;50.360;7.582;2023-06-14T02:12:43;5.77;;;4.40;;
21677;SDS011;11000;50.360;7.582;2023-06-14T02:15:03;7.10;;;4.57;;
21677;SDS011;11000;50.360;7.582;2023-06-14T02:17:25;4.83;;;4.13;;
21677;SDS011;11000;50.360;7.582;2023-06-14T02:19:46;6.00;;;4.43;;
21677;SDS011;11000;50.360;7.582;2023-06-14T02:22:06;6.47;;;4.30;;
21677;SDS011;11000;50.360;7.582;2023-06-14T02:24:27;6.57;;;4.50;;
21677;SDS011;11000;50.360;7.582;2023-06-14T02:26:47;8.50;;;4.63;;
21677;SDS011;11000;50.360;7.582;2023-06-14T02:29:08;5.47;;;4.30;;
21677;SDS011;11000;50.360;7.582;2023-06-14T02:31:31;10.90;;;4.57;;
21677;SDS011;11000;50.360;7.582;2023-06-14T02:33:52;4.40;;;4.00;;
21677;SDS011;11000;50.360;7.582;2023-06-14T02:36:13;5.13;;;4.30;;
21677;SDS011;11000;50.360;7.582;2023-06-14T02:38:33;5.17;;;4.67;;
21677;SDS011;11000;50.360;7.582;2023-06-14T02:40:54;4.70;;;4.13;;
21677;SDS011;11000;50.360;7.582;2023-06-14T02:43:14;4.83;;;4.37;;
21677;SDS011;11000;50.360;7.582;2023-06-14T02:45:37;7.07;;;4.87;;
21677;SDS011;11000;50.360;7.582;2023-06-14T02:47:58;7.03;;;4.60;;
21677;SDS011;11000;50.360;7.582;2023-06-14T02:50:18;8.03;;;4.93;;
21677;SDS011;11000;50.360;7.582;2023-06-14T02:52:39;5.13;;;4.63;;
21677;SDS011;11000;50.360;7.582;2023-06-14T02:55:01;5.47;;;4.20;;
21677;SDS011;11000;50.360;7.582;2023-06-14T02:57:22;5.00;;;4.50;;
21677;SDS011;11000;50.360;7.582;2023-06-14T02:59:43;7.20;;;4.17;;
21677;SDS011;11000;50.360;7.582;2023-06-14T03:02:03;6.13;;;4.23;;
21677;SDS011;11000;50.360;7.582;2023-06-14T03:04:25;5.20;;;4.50;;
21677;SDS011;11000;50.360;7.582;2023-06-14T03:06:45;4.67;;;4.23;;
21677;SDS011;11000;50.360;7.582;2023-06-14T03:09:10;5.03;;;4.40;;
21677;SDS011;11000;50.360;7.582;2023-06-14T03:11:31;6.10;;;4.80;;
21677;SDS011;11000;50.360;7.582;2023-06-14T03:13:52;5.07;;;4.43;;
21677;SDS011;11000;50.360;7.582;2023-06-14T03:16:13;8.10;;;4.97;;
21677;SDS011;11000;50.360;7.582;2023-06-14T03:18:33;7.77;;;4.80;;
21677;SDS011;11000;50.360;7.582;2023-06-14T03:20:55;5.17;;;4.67;;
21677;SDS011;11000;50.360;7.582;2023-06-14T03:23:17;5.83;;;4.47;;
21677;SDS011;11000;50.360;7.582;2023-06-14T03:25:38;5.53;;;4.63;;
21677;SDS011;11000;50.360;7.582;2023-06-14T03:28:02;4.97;;;4.43;;
21677;SDS011;11000;50.360;7.582;2023-06-14T03:30:22;4.67;;;4.27;;
21677;SDS011;11000;50.360;7.582;2023-06-14T03:32:43;7.47;;;4.70;;
21677;SDS011;11000;50.360;7.582;2023-06-14T03:35:04;4.63;;;4.23;;
21677;SDS011;11000;50.360;7.582;2023-06-14T03:37:25;5.80;;;5.17;;
21677;SDS011;11000;50.360;7.582;2023-06-14T03:39:45;7.83;;;4.77;;
21677;SDS011;11000;50.360;7.582;2023-06-14T03:42:07;5.13;;;4.63;;
21677;SDS011;11000;50.360;7.582;2023-06-14T03:44:28;6.27;;;4.90;;
21677;SDS011;11000;50.360;7.582;2023-06-14T03:46:48;6.67;;;4.67;;
21677;SDS011;11000;50.360;7.582;2023-06-14T03:49:09;7.50;;;5.17;;
21677;SDS011;11000;50.360;7.582;2023-06-14T03:51:31;7.27;;;4.80;;
21677;SDS011;11000;50.360;7.582;2023-06-14T03:53:51;6.37;;;4.47;;
21677;SDS011;11000;50.360;7.582;2023-06-14T03:56:12;6.17;;;4.77;;
21677;SDS011;11000;50.360;7.582;2023-06-14T03:58:32;5.30;;;4.73;;
21677;SDS011;11000;50.360;7.582;2023-06-14T04:00:53;5.50;;;4.63;;
21677;SDS011;11000;50.360;7.582;2023-06-14T04:03:13;5.53;;;4.37;;
21677;SDS011;11000;50.360;7.582;2023-06-14T04:05:35;5.30;;;4.80;;
21677;SDS011;11000;50.360;7.582;2023-06-14T04:07:56;5.43;;;4.87;;
21677;SDS011;11000;50.360;7.582;2023-06-14T04:10:17;5.93;;;4.87;;
21677;SDS011;11000;50.360;7.582;2023-06-14T04:12:37;7.20;;;4.90;;
21677;SDS011;11000;50.360;7.582;2023-06-14T04:14:58;4.87;;;4.47;;
21677;SDS011;11000;50.360;7.582;2023-06-14T04:17:18;8.37;;;4.90;;
21677;SDS011;11000;50.360;7.582;2023-06-14T04:19:39;6.50;;;5.03;;
21677;SDS011;11000;50.360;7.582;2023-06-14T04:21:59;6.47;;;5.00;;
21677;SDS011;11000;50.360;7.582;2023-06-14T04:24:22;7.47;;;4.63;;
21677;SDS011;11000;50.360;7.582;2023-06-14T04:26:43;7.27;;;5.10;;
21677;SDS011;11000;50.360;7.582;2023-06-14T04:29:04;6.00;;;5.00;;
21677;SDS011;11000;50.360;7.582;2023-06-14T04:31:25;6.23;;;4.93;;
21677;SDS011;11000;50.360;7.582;2023-06-14T04:33:46;8.40;;;4.50;;
21677;SDS011;11000;50.360;7.582;2023-06-14T04:36:06;4.87;;;4.37;;
21677;SDS011;11000;50.360;7.582;2023-06-14T04:38:27;8.13;;;4.83;;
21677;SDS011;11000;50.360;7.582;2023-06-14T04:40:48;4.93;;;4.53;;
21677;SDS011;11000;50.360;7.582;2023-06-14T04:43:09;6.97;;;5.10;;
21677;SDS011;11000;50.360;7.582;2023-06-14T04:45:32;5.53;;;5.03;;
21677;SDS011;11000;50.360;7.582;2023-06-14T04:47:52;5.43;;;4.53;;
21677;SDS011;11000;50.360;7.582;2023-06-14T04:50:17;5.63;;;4.53;;
21677;SDS011;11000;50.360;7.582;2023-06-14T04:52:38;5.17;;;4.73;;
21677;SDS011;11000;50.360;7.582;2023-06-14T04:54:58;4.70;;;4.30;;
21677;SDS011;11000;50.360;7.582;2023-06-14T04:57:19;5.73;;;4.40;;
21677;SDS011;11000;50.360;7.582;2023-06-14T04:59:41;7.20;;;4.90;;
21677;SDS011;11000;50.360;7.582;2023-06-14T05:02:04;6.30;;;4.60;;
21677;SDS011;11000;50.360;7.582;2023-06-14T05:04:25;6.03;;;4.10;;
21677;SDS011;11000;50.360;7.582;2023-06-14T05:06:47;5.43;;;4.87;;
21677;SDS011;11000;50.360;7.582;2023-06-14T05:09:08;6.23;;;5.00;;
21677;SDS011;11000;50.360;7.582;2023-06-14T05:11:28;4.60;;;4.17;;
21677;SDS011;11000;50.360;7.582;2023-06-14T05:13:49;5.57;;;4.47;;
21677;SDS011;11000;50.360;7.582;2023-06-14T05:16:11;6.40;;;4.43;;
21677;SDS011;11000;50.360;7.582;2023-06-14T05:18:32;6.60;;;4.50;;
21677;SDS011;11000;50.360;7.582;2023-06-14T05:20:55;5.17;;;4.50;;
21677;SDS011;11000;50.360;7.582;2023-06-14T05:23:15;5.13;;;4.40;;
21677;SDS011;11000;50.360;7.582;2023-06-14T05:25:36;5.63;;;4.10;;
21677;SDS011;11000;50.360;7.582;2023-06-14T05:27:57;5.03;;;4.40;;
21677;SDS011;11000;50.360;7.582;2023-06-14T05:30:17;7.30;;;4.53;;
21677;SDS011;11000;50.360;7.582;2023-06-14T05:32:38;6.13;;;4.37;;
21677;SDS011;11000;50.360;7.582;2023-06-14T05:34:59;4.97;;;4.47;;
21677;SDS011;11000;50.360;7.582;2023-06-14T05:37:19;5.47;;;4.20;;
21677;SDS011;11000;50.360;7.582;2023-06-14T05:39:40;5.17;;;4.07;;
21677;SDS011;11000;50.360;7.582;2023-06-14T05:42:00;5.43;;;4.13;;
21677;SDS011;11000;50.360;7.582;2023-06-14T05:44:21;7.70;;;4.20;;
21677;SDS011;11000;50.360;7.582;2023-06-14T05:46:41;6.83;;;4.27;;
21677;SDS011;11000;50.360;7.582;2023-06-14T05:49:02;4.47;;;4.07;;
21677;SDS011;11000;50.360;7.582;2023-06-14T05:51:22;8.33;;;4.00;;
21677;SDS011;11000;50.360;7.582;2023-06-14T05:53:45;7.50;;;4.27;;
21677;SDS011;11000;50.360;7.582;2023-06-14T05:56:06;7.57;;;3.97;;
21677;SDS011;11000;50.360;7.582;2023-06-14T05:58:26;7.90;;;4.07;;
21677;SDS011;11000;50.360;7.582;2023-06-14T06:00:47;5.17;;;3.60;;
21677;SDS011;11000;50.360;7.582;2023-06-14T06:03:08;3.73;;;3.40;;
21677;SDS011;11000;50.360;7.582;2023-06-14T06:05:29;4.83;;;3.37;;
21677;SDS011;11000;50.360;7.582;2023-06-14T06:07:49;6.67;;;3.70;;
21677;SDS011;11000;50.360;7.582;2023-06-14T06:10:10;4.80;;;3.60;;
21677;SDS011;11000;50.360;7.582;2023-06-14T06:12:31;7.27;;;3.20;;
21677;SDS011;11000;50.360;7.582;2023-06-14T06:14:52;5.33;;;3.10;;
21677;SDS011;11000;50.360;7.582;2023-06-14T06:17:13;6.57;;;3.63;;
21677;SDS011;11000;50.360;7.582;2023-06-14T06:19:34;4.03;;;3.47;;
21677;SDS011;11000;50.360;7.582;2023-06-14T06:21:54;5.63;;;3.43;;
21677;SDS011;11000;50.360;7.582;2023-06-14T06:24:15;4.13;;;2.97;;
21677;SDS011;11000;50.360;7.582;2023-06-14T06:26:35;7.97;;;3.43;;
21677;SDS011;11000;50.360;7.582;2023-06-14T06:28:57;14.10;;;3.20;;
21677;SDS011;11000;50.360;7.582;2023-06-14T06:31:18;3.47;;;2.90;;
21677;SDS011;11000;50.360;7.582;2023-06-14T06:33:39;3.50;;;3.07;;
21677;SDS011;11000;50.360;7.582;2023-06-14T06:35:59;3.90;;;2.77;;
21677;SDS011;11000;50.360;7.582;2023-06-14T06:38:20;3.50;;;2.70;;
21677;SDS011;11000;50.360;7.582;2023-06-14T06:40:40;6.87;;;2.90;;
21677;SDS011;11000;50.360;7.582;2023-06-14T06:43:01;4.87;;;3.03;;
21677;SDS011;11000;50.360;7.582;2023-06-14T06:45:22;5.80;;;3.00;;
21677;SDS011;11000;50.360;7.582;2023-06-14T06:47:44;4.23;;;2.80;;
21677;SDS011;11000;50.360;7.582;2023-06-14T06:50:05;5.60;;;2.77;;
21677;SDS011;11000;50.360;7.582;2023-06-14T06:52:27;9.87;;;2.67;;
21677;SDS011;11000;50.360;7.582;2023-06-14T06:54:49;5.10;;;2.93;;
21677;SDS011;11000;50.360;7.582;2023-06-14T06:57:10;5.03;;;2.93;;
21677;SDS011;11000;50.360;7.582;2023-06-14T06:59:35;7.43;;;3.00;;
21677;SDS011;11000;50.360;7.582;2023-06-14T07:02:00;5.30;;;2.83;;
21677;SDS011;11000;50.360;7.582;2023-06-14T07:04:21;8.40;;;3.10;;
21677;SDS011;11000;50.360;7.582;2023-06-14T07:06:42;6.17;;;2.67;;
21677;SDS011;11000;50.360;7.582;2023-06-14T07:09:02;3.30;;;2.57;;
21677;SDS011;11000;50.360;7.582;2023-06-14T07:11:25;3.83;;;2.60;;
21677;SDS011;11000;50.360;7.582;2023-06-14T07:13:45;4.90;;;2.63;;
21677;SDS011;11000;50.360;7.582;2023-06-14T07:16:06;4.57;;;2.70;;
21677;SDS011;11000;50.360;7.582;2023-06-14T07:18:27;3.70;;;2.90;;
21677;SDS011;11000;50.360;7.582;2023-06-14T07:20:47;6.03;;;2.67;;
21677;SDS011;11000;50.360;7.582;2023-06-14T07:23:08;4.07;;;2.57;;
21677;SDS011;11000;50.360;7.582;2023-06-14T07:25:29;2.50;;;2.30;;
21677;SDS011;11000;50.360;7.582;2023-06-14T07:27:49;3.23;;;2.30;;
21677;SDS011;11000;50.360;7.582;2023-06-14T07:30:10;5.37;;;2.67;;
21677;SDS011;11000;50.360;7.582;2023-06-14T07:32:31;7.27;;;2.77;;
21677;SDS011;11000;50.360;7.582;2023-06-14T07:34:51;2.37;;;2.17;;
21677;SDS011;11000;50.360;7.582;2023-06-14T07:37:12;5.50;;;2.60;;
21677;SDS011;11000;50.360;7.582;2023-06-14T07:39:32;8.83;;;2.50;;
21677;SDS011;11000;50.360;7.582;2023-06-14T07:41:53;3.43;;;2.00;;
21677;SDS011;11000;50.360;7.582;2023-06-14T07:44:13;4.23;;;2.20;;
21677;SDS011;11000;50.360;7.582;2023-06-14T07:46:34;2.27;;;2.07;;
21677;SDS011;11000;50.360;7.582;2023-06-14T07:48:54;4.43;;;2.47;;
21677;SDS011;11000;50.360;7.582;2023-06-14T07:51:15;4.53;;;2.23;;
21677;SDS011;11000;50.360;7.582;2023-06-14T07:53:35;4.70;;;2.30;;
21677;SDS011;11000;50.360;7.582;2023-06-14T07:55:56;4.53;;;2.13;;
21677;SDS011;11000;50.360;7.582;2023-06-14T07:58:17;5.90;;;2.40;;
21677;SDS011;11000;50.360;7.582;2023-06-14T08:00:37;3.73;;;2.40;;
21677;SDS011;11000;50.360;7.582;2023-06-14T08:02:58;3.60;;;2.17;;
21677;SDS011;11000;50.360;7.582;2023-06-14T08:05:19;5.20;;;2.50;;
21677;SDS011;11000;50.360;7.582;2023-06-14T08:07:40;4.33;;;2.10;;
21677;SDS011;11000;50.360;7.582;2023-06-14T08:10:00;5.23;;;2.50;;
21677;SDS011;11000;50.360;7.582;2023-06-14T08:12:21;4.90;;;2.30;;
21677;SDS011;11000;50.360;7.582;2023-06-14T08:14:42;4.90;;;2.33;;
21677;SDS011;11000;50.360;7.582;2023-06-14T08:17:03;3.77;;;2.27;;
21677;SDS011;11000;50.360;7.582;2023-06-14T08:19:23;6.30;;;2.13;;
21677;SDS011;11000;50.360;7.582;2023-06-14T08:21:44;3.60;;;2.17;;
21677;SDS011;11000;50.360;7.582;2023-06-14T08:24:06;6.60;;;2.50;;
21677;SDS011;11000;50.360;7.582;2023-06-14T08:26:27;5.10;;;2.40;;
21677;SDS011;11000;50.360;7.582;2023-06-14T08:28:51;4.13;;;1.97;;
21677;SDS011;11000;50.360;7.582;2023-06-14T08:31:12;4.90;;;2.33;;
21677;SDS011;11000;50.360;7.582;2023-06-14T08:33:33;4.50;;;2.23;;
21677;SDS011;11000;50.360;7.582;2023-06-14T08:35:53;6.03;;;1.83;;
21677;SDS011;11000;50.360;7.582;2023-06-14T08:38:14;2.00;;;1.87;;
21677;SDS011;11000;50.360;7.582;2023-06-14T08:40:36;3.57;;;2.20;;
21677;SDS011;11000;50.360;7.582;2023-06-14T08:42:58;3.07;;;2.20;;
21677;SDS011;11000;50.360;7.582;2023-06-14T08:45:20;7.60;;;2.47;;
21677;SDS011;11000;50.360;7.582;2023-06-14T08:47:41;5.83;;;2.20;;
21677;SDS011;11000;50.360;7.582;2023-06-14T08:50:03;6.40;;;2.40;;
21677;SDS011;11000;50.360;7.582;2023-06-14T08:52:26;4.60;;;1.90;;
21677;SDS011;11000;50.360;7.582;2023-06-14T08:54:53;5.83;;;2.30;;
21677;SDS011;11000;50.360;7.582;2023-06-14T08:57:15;3.50;;;2.13;;
21677;SDS011;11000;50.360;7.582;2023-06-14T08:59:37;3.53;;;2.40;;
21677;SDS011;11000;50.360;7.582;2023-06-14T09:02:05;2.33;;;2.07;;
21677;SDS011;11000;50.360;7.582;2023-06-14T09:04:26;2.83;;;2.10;;
21677;SDS011;11000;50.360;7.582;2023-06-14T09:06:49;3.77;;;2.17;;
21677;SDS011;11000;50.360;7.582;2023-06-14T09:09:12;3.00;;;1.83;;
21677;SDS011;11000;50.360;7.582;2023-06-14T09:11:34;2.50;;;2.30;;
21677;SDS011;11000;50.360;7.582;2023-06-14T09:13:55;4.50;;;1.73;;
21677;SDS011;11000;50.360;7.582;2023-06-14T09:16:16;2.20;;;2.00;;
21677;SDS011;11000;50.360;7.582;2023-06-14T09:18:40;2.70;;;1.90;;
21677;SDS011;11000;50.360;7.582;2023-06-14T09:21:08;2.70;;;1.90;;
21677;SDS011;11000;50.360;7.582;2023-06-14T09:23:28;3.40;;;2.13;;
21677;SDS011;11000;50.360;7.582;2023-06-14T09:25:49;3.73;;;2.30;;
21677;SDS011;11000;50.360;7.582;2023-06-14T09:28:10;3.07;;;1.93;;
21677;SDS011;11000;50.360;7.582;2023-06-14T09:30:31;4.43;;;2.33;;
21677;SDS011;11000;50.360;7.582;2023-06-14T09:32:52;3.73;;;2.43;;
21677;SDS011;11000;50.360;7.582;2023-06-14T09:35:16;5.93;;;2.00;;
21677;SDS011;11000;50.360;7.582;2023-06-14T09:37:37;4.40;;;2.07;;
21677;SDS011;11000;50.360;7.582;2023-06-14T09:39:59;2.90;;;2.17;;
21677;SDS011;11000;50.360;7.582;2023-06-14T09:42:19;4.13;;;2.10;;
21677;SDS011;11000;50.360;7.582;2023-06-14T09:44:40;3.20;;;1.93;;
21677;SDS011;11000;50.360;7.582;2023-06-14T09:47:01;3.70;;;2.40;;
21677;SDS011;11000;50.360;7.582;2023-06-14T09:49:24;4.57;;;2.40;;
21677;SDS011;11000;50.360;7.582;2023-06-14T09:51:45;2.40;;;1.90;;
21677;SDS011;11000;50.360;7.582;2023-06-14T09:54:12;3.43;;;1.90;;
21677;SDS011;11000;50.360;7.582;2023-06-14T09:56:37;5.47;;;2.30;;
21677;SDS011;11000;50.360;7.582;2023-06-14T09:59:01;2.67;;;1.90;;
21677;SDS011;11000;50.360;7.582;2023-06-14T10:01:25;2.37;;;2.07;;
21677;SDS011;11000;50.360;7.582;2023-06-14T10:03:50;3.93;;;1.90;;
21677;SDS011;11000;50.360;7.582;2023-06-14T10:06:13;4.67;;;1.90;;
21677;SDS011;11000;50.360;7.582;2023-06-14T10:08:35;2.53;;;2.00;;
21677;SDS011;11000;50.360;7.582;2023-06-14T10:10:57;3.60;;;1.90;;
21677;SDS011;11000;50.360;7.582;2023-06-14T10:13:18;2.43;;;1.83;;
21677;SDS011;11000;50.360;7.582;2023-06-14T10:15:58;4.57;;;2.10;;
21677;SDS011;11000;50.360;7.582;2023-06-14T10:18:40;2.97;;;1.77;;
21677;SDS011;11000;50.360;7.582;2023-06-14T10:21:18;3.03;;;1.80;;
21677;SDS011;11000;50.360;7.582;2023-06-14T10:23:41;3.77;;;2.00;;
21677;SDS011;11000;50.360;7.582;2023-06-14T10:26:05;3.90;;;1.67;;
21677;SDS011;11000;50.360;7.582;2023-06-14T10:28:25;3.13;;;1.80;;
21677;SDS011;11000;50.360;7.582;2023-06-14T10:33:33;2.80;;;1.90;;
21677;SDS011;11000;50.360;7.582;2023-06-14T10:36:10;2.93;;;1.93;;
21677;SDS011;11000;50.360;7.582;2023-06-14T10:38:46;3.03;;;1.90;;
21677;SDS011;11000;50.360;7.582;2023-06-14T10:41:06;2.07;;;1.80;;
21677;SDS011;11000;50.360;7.582;2023-06-14T10:43:27;2.83;;;1.60;;
21677;SDS011;11000;50.360;7.582;2023-06-14T10:48:43;3.67;;;1.67;;
21677;SDS011;11000;50.360;7.582;2023-06-14T10:51:04;4.23;;;1.63;;
21677;SDS011;11000;50.360;7.582;2023-06-14T10:53:24;2.37;;;1.57;;
21677;SDS011;11000;50.360;7.582;2023-06-14T10:55:45;3.47;;;1.57;;
21677;SDS011;11000;50.360;7.582;2023-06-14T10:58:06;1.90;;;1.50;;
21677;SDS011;11000;50.360;7.582;2023-06-14T11:00:30;4.70;;;1.50;;
21677;SDS011;11000;50.360;7.582;2023-06-14T11:05:55;1.63;;;1.30;;
21677;SDS011;11000;50.360;7.582;2023-06-14T11:11:17;2.03;;;1.33;;
21677;SDS011;11000;50.360;7.582;2023-06-14T11:13:42;1.67;;;1.50;;
21677;SDS011;11000;50.360;7.582;2023-06-14T11:16:10;1.57;;;1.47;;
21677;SDS011;11000;50.360;7.582;2023-06-14T11:18:31;2.40;;;1.20;;
21677;SDS011;11000;50.360;7.582;2023-06-14T11:20:52;4.87;;;1.50;;
21677;SDS011;11000;50.360;7.582;2023-06-14T11:23:13;1.80;;;1.30;;
21677;SDS011;11000;50.360;7.582;2023-06-14T11:25:33;2.20;;;1.33;;
21677;SDS011;11000;50.360;7.582;2023-06-14T11:27:54;2.87;;;1.30;;
21677;SDS011;11000;50.360;7.582;2023-06-14T11:30:15;3.57;;;1.10;;
21677;SDS011;11000;50.360;7.582;2023-06-14T11:32:37;2.53;;;1.40;;
21677;SDS011;11000;50.360;7.582;2023-06-14T11:34:57;1.20;;;1.20;;
21677;SDS011;11000;50.360;7.582;2023-06-14T11:37:19;2.40;;;1.50;;
21677;SDS011;11000;50.360;7.582;2023-06-14T11:39:43;5.40;;;1.73;;
21677;SDS011;11000;50.360;7.582;2023-06-14T11:42:04;2.20;;;1.60;;
21677;SDS011;11000;50.360;7.582;2023-06-14T11:44:25;5.50;;;1.47;;
21677;SDS011;11000;50.360;7.582;2023-06-14T11:46:46;2.23;;;1.50;;
21677;SDS011;11000;50.360;7.582;2023-06-14T11:49:06;4.53;;;1.80;;
21677;SDS011;11000;50.360;7.582;2023-06-14T11:51:29;2.60;;;1.70;;
21677;SDS011;11000;50.360;7.582;2023-06-14T11:53:51;1.80;;;1.63;;
21677;SDS011;11000;50.360;7.582;2023-06-14T11:56:12;2.93;;;1.60;;
21677;SDS011;11000;50.360;7.582;2023-06-14T11:58:33;5.27;;;1.80;;
21677;SDS011;11000;50.360;7.582;2023-06-14T12:00:54;4.40;;;1.63;;
21677;SDS011;11000;50.360;7.582;2023-06-14T12:03:15;4.23;;;1.70;;
21677;SDS011;11000;50.360;7.582;2023-06-14T12:05:35;4.30;;;1.83;;
21677;SDS011;11000;50.360;7.582;2023-06-14T12:07:59;4.10;;;1.77;;
21677;SDS011;11000;50.360;7.582;2023-06-14T12:10:21;5.13;;;1.80;;
21677;SDS011;11000;50.360;7.582;2023-06-14T12:12:42;4.00;;;1.90;;
21677;SDS011;11000;50.360;7.582;2023-06-14T12:15:03;4.03;;;1.83;;
21677;SDS011;11000;50.360;7.582;2023-06-14T12:17:25;1.87;;;1.47;;
21677;SDS011;11000;50.360;7.582;2023-06-14T12:19:48;4.30;;;1.80;;
21677;SDS011;11000;50.360;7.582;2023-06-14T12:22:10;3.13;;;2.03;;
21677;SDS011;11000;50.360;7.582;2023-06-14T12:24:31;4.70;;;2.00;;
21677;SDS011;11000;50.360;7.582;2023-06-14T12:26:52;3.27;;;2.10;;
21677;SDS011;11000;50.360;7.582;2023-06-14T12:29:13;2.07;;;1.80;;
21677;SDS011;11000;50.360;7.582;2023-06-14T12:31:33;5.40;;;2.00;;
21677;SDS011;11000;50.360;7.582;2023-06-14T12:33:54;2.33;;;1.80;;
21677;SDS011;11000;50.360;7.582;2023-06-14T12:36:15;1.93;;;1.80;;
21677;SDS011;11000;50.360;7.582;2023-06-14T12:38:36;7.63;;;2.10;;
21677;SDS011;11000;50.360;7.582;2023-06-14T12:40:57;2.73;;;1.90;;
21677;SDS011;11000;50.360;7.582;2023-06-14T12:43:18;3.00;;;1.83;;
21677;SDS011;11000;50.360;7.582;2023-06-14T12:45:39;2.23;;;2.03;;
21677;SDS011;11000;50.360;7.582;2023-06-14T12:48:00;3.47;;;1.97;;
21677;SDS011;11000;50.360;7.582;2023-06-14T12:50:21;2.37;;;1.90;;
21677;SDS011;11000;50.360;7.582;2023-06-14T12:52:43;2.13;;;1.93;;
21677;SDS011;11000;50.360;7.582;2023-06-14T12:55:04;3.87;;;2.10;;
21677;SDS011;11000;50.360;7.582;2023-06-14T12:57:25;2.73;;;1.93;;
21677;SDS011;11000;50.360;7.582;2023-06-14T12:59:46;2.60;;;2.00;;
21677;SDS011;11000;50.360;7.582;2023-06-14T13:02:15;1.77;;;1.67;;
21677;SDS011;11000;50.360;7.582;2023-06-14T13:04:36;3.80;;;2.23;;
21677;SDS011;11000;50.360;7.582;2023-06-14T13:06:57;2.63;;;1.90;;
21677;SDS011;11000;50.360;7.582;2023-06-14T13:09:17;3.00;;;1.90;;
21677;SDS011;11000;50.360;7.582;2023-06-14T13:11:38;2.20;;;2.00;;
21677;SDS011;11000;50.360;7.582;2023-06-14T13:13:58;2.07;;;1.83;;
21677;SDS011;11000;50.360;7.582;2023-06-14T13:16:19;2.53;;;1.90;;
21677;SDS011;11000;50.360;7.582;2023-06-14T13:18:39;3.90;;;2.10;;
21677;SDS011;11000;50.360;7.582;2023-06-14T13:21:00;3.07;;;1.80;;
21677;SDS011;11000;50.360;7.582;2023-06-14T13:23:21;2.17;;;2.03;;
21677;SDS011;11000;50.360;7.582;2023-06-14T13:25:42;5.93;;;2.13;;
21677;SDS011;11000;50.360;7.582;2023-06-14T13:28:03;2.27;;;1.80;;
21677;SDS011;11000;50.360;7.582;2023-06-14T13:30:24;2.53;;;1.70;;
21677;SDS011;11000;50.360;7.582;2023-06-14T13:32:45;1.90;;;1.70;;
21677;SDS011;11000;50.360;7.582;2023-06-14T13:35:05;2.87;;;2.00;;
21677;SDS011;11000;50.360;7.582;2023-06-14T13:37:27;3.10;;;1.83;;
21677;SDS011;11000;50.360;7.582;2023-06-14T13:39:48;3.97;;;1.53;;
21677;SDS011;11000;50.360;7.582;2023-06-14T13:42:08;1.90;;;1.70;;
21677;SDS011;11000;50.360;7.582;2023-06-14T13:44:30;1.80;;;1.70;;
21677;SDS011;11000;50.360;7.582;2023-06-14T13:46:50;1.70;;;1.60;;
21677;SDS011;11000;50.360;7.582;2023-06-14T13:49:11;2.53;;;1.83;;
21677;SDS011;11000;50.360;7.582;2023-06-14T13:51:32;2.67;;;1.80;;
21677;SDS011;11000;50.360;7.582;2023-06-14T13:53:53;2.67;;;1.70;;
21677;SDS011;11000;50.360;7.582;2023-06-14T13:56:15;2.57;;;1.80;;
21677;SDS011;11000;50.360;7.582;2023-06-14T13:58:37;3.57;;;2.23;;
21677;SDS011;11000;50.360;7.582;2023-06-14T14:00:57;2.60;;;1.90;;
21677;SDS011;11000;50.360;7.582;2023-06-14T14:03:19;2.13;;;1.97;;
21677;SDS011;11000;50.360;7.582;2023-06-14T14:05:40;2.77;;;1.80;;
21677;SDS011;11000;50.360;7.582;2023-06-14T14:08:00;4.13;;;1.80;;
21677;SDS011;11000;50.360;7.582;2023-06-14T14:10:21;3.13;;;1.70;;
21677;SDS011;11000;50.360;7.582;2023-06-14T14:12:43;4.20;;;2.00;;
21677;SDS011;11000;50.360;7.582;2023-06-14T14:15:05;7.83;;;1.90;;
21677;SDS011;11000;50.360;7.582;2023-06-14T14:17:32;3.43;;;1.80;;
21677;SDS011;11000;50.360;7.582;2023-06-14T14:19:53;2.67;;;1.73;;
21677;SDS011;11000;50.360;7.582;2023-06-14T14:22:13;2.63;;;1.63;;
21677;SDS011;11000;50.360;7.582;2023-06-14T14:24:34;2.33;;;1.90;;
21677;SDS011;11000;50.360;7.582;2023-06-14T14:26:54;2.10;;;1.90;;